sensor_id;sensor_type;location;lat;lon;timestamp;pressure;altitude;pressure_sealevel;temperature;humidity
35908;BME280;22003;50.320;8.054;2023-03-14T05:00:55;97423.44;;;9.81;87.70
35908;BME280;22003;50.320;8.054;2023-03-14T05:03:20;97362.50;;;9.35;87.17
35908;BME280;22003;50.320;8.054;2023-03-14T05:05:46;97365.25;;;9.49;87.56
35908;BME280;22003;50.320;8.054;2023-03-14T05:08:11;97417.66;;;9.85;86.91
35908;BME280;22003;50.320;8.054;2023-03-14T05:10:36;97418.66;;;9.84;87.58
35908;BME280;22003;50.320;8.054;2023-03-14T05:13:02;97391.34;;;9.52;87.38
35908;BME280;22003;50.320;8.054;2023-03-14T05:15:27;97416.72;;;9.70;87.60
35908;BME280;22003;50.320;8.054;2023-03-14T05:17:53;97388.31;;;9.72;86.60
35908;BME280;22003;50.320;8.054;2023-03-14T05:20:19;97413.00;;;9.87;87.16
35908;BME280;22003;50.320;8.054;2023-03-14T05:22:44;97413.00;;;9.87;86.74
35908;BME280;22003;50.320;8.054;2023-03-14T05:25:09;97345.91;;;9.49;86.74
35908;BME280;22003;50.320;8.054;2023-03-14T05:27:35;97405.50;;;9.99;85.83
35908;BME280;22003;50.320;8.054;2023-03-14T05:30:02;97312.84;;;9.14;86.93
35908;BME280;22003;50.320;8.054;2023-03-14T05:32:28;97402.22;;;9.97;86.31
35908;BME280;22003;50.320;8.054;2023-03-14T05:34:53;97355.91;;;9.70;85.69
35908;BME280;22003;50.320;8.054;2023-03-14T05:37:23;97403.25;;;9.88;86.64
35908;BME280;22003;50.320;8.054;2023-03-14T05:39:48;97407.38;;;9.90;86.81
35908;BME280;22003;50.320;8.054;2023-03-14T05:42:13;97389.06;;;9.81;87.43
35908;BME280;22003;50.320;8.054;2023-03-14T05:44:39;97413.06;;;9.79;88.24
35908;BME280;22003;50.320;8.054;2023-03-14T05:47:04;97384.22;;;9.61;87.57
35908;BME280;22003;50.320;8.054;2023-03-14T05:49:29;97390.00;;;9.57;88.33
35908;BME280;22003;50.320;8.054;2023-03-14T05:51:54;97381.69;;;9.68;87.49
35908;BME280;22003;50.320;8.054;2023-03-14T05:54:20;97381.25;;;9.56;88.57
35908;BME280;22003;50.320;8.054;2023-03-14T05:56:45;97325.88;;;9.15;88.47
35908;BME280;22003;50.320;8.054;2023-03-14T05:59:10;97383.00;;;9.24;89.23
35908;BME280;22003;50.320;8.054;2023-03-14T06:01:35;97377.06;;;9.22;88.96
35908;BME280;22003;50.320;8.054;2023-03-14T06:04:01;97375.44;;;8.97;90.45
35908;BME280;22003;50.320;8.054;2023-03-14T06:06:26;97374.41;;;9.14;89.93
35908;BME280;22003;50.320;8.054;2023-03-14T06:08:51;97367.38;;;8.90;90.46
35908;BME280;22003;50.320;8.054;2023-03-14T06:11:17;97371.47;;;8.93;90.83
35908;BME280;22003;50.320;8.054;2023-03-14T06:13:42;97326.13;;;8.89;89.67
35908;BME280;22003;50.320;8.054;2023-03-14T06:16:08;97351.00;;;9.11;89.34
35908;BME280;22003;50.320;8.054;2023-03-14T06:18:33;97378.25;;;9.04;90.39
35908;BME280;22003;50.320;8.054;2023-03-14T06:20:59;97377.09;;;9.06;91.07
35908;BME280;22003;50.320;8.054;2023-03-14T06:23:24;97326.44;;;8.86;90.33
35908;BME280;22003;50.320;8.054;2023-03-14T06:25:50;97364.69;;;9.15;91.24
35908;BME280;22003;50.320;8.054;2023-03-14T06:28:15;97309.31;;;8.74;91.84
35908;BME280;22003;50.320;8.054;2023-03-14T06:30:40;97365.03;;;9.04;92.34
35908;BME280;22003;50.320;8.054;2023-03-14T06:33:06;97357.78;;;9.06;93.06
35908;BME280;22003;50.320;8.054;2023-03-14T06:35:31;97302.53;;;8.80;92.67
35908;BME280;22003;50.320;8.054;2023-03-14T06:37:56;97358.34;;;9.32;92.03
35908;BME280;22003;50.320;8.054;2023-03-14T06:40:22;97321.59;;;9.22;91.27
35908;BME280;22003;50.320;8.054;2023-03-14T06:42:47;97348.66;;;9.64;91.08
35908;BME280;22003;50.320;8.054;2023-03-14T06:45:13;97341.72;;;9.63;90.31
35908;BME280;22003;50.320;8.054;2023-03-14T06:47:39;97344.41;;;9.55;90.06
35908;BME280;22003;50.320;8.054;2023-03-14T06:50:06;97341.09;;;9.61;89.87
35908;BME280;22003;50.320;8.054;2023-03-14T06:52:31;97346.59;;;9.82;89.49
35908;BME280;22003;50.320;8.054;2023-03-14T06:54:57;97291.84;;;9.60;89.06
35908;BME280;22003;50.320;8.054;2023-03-14T06:57:22;97343.31;;;10.03;88.13
35908;BME280;22003;50.320;8.054;2023-03-14T06:59:47;97346.75;;;10.12;87.48
35908;BME280;22003;50.320;8.054;2023-03-14T07:02:13;97294.25;;;9.77;87.71
35908;BME280;22003;50.320;8.054;2023-03-14T07:04:38;97304.03;;;10.00;87.28
35908;BME280;22003;50.320;8.054;2023-03-14T07:07:04;97336.50;;;10.09;87.47
35908;BME280;22003;50.320;8.054;2023-03-14T07:09:29;97342.56;;;10.25;87.09
35908;BME280;22003;50.320;8.054;2023-03-14T07:11:55;97339.38;;;10.30;87.38
35908;BME280;22003;50.320;8.054;2023-03-14T07:14:20;97340.50;;;10.36;86.82
35908;BME280;22003;50.320;8.054;2023-03-14T07:16:45;97216.25;;;9.73;86.06
35908;BME280;22003;50.320;8.054;2023-03-14T07:19:10;97270.78;;;10.20;85.68
35908;BME280;22003;50.320;8.054;2023-03-14T07:21:36;97276.59;;;10.24;85.13
35908;BME280;22003;50.320;8.054;2023-03-14T07:24:01;97312.09;;;10.29;86.61
35908;BME280;22003;50.320;8.054;2023-03-14T07:26:26;97349.22;;;10.44;86.46
35908;BME280;22003;50.320;8.054;2023-03-14T07:28:52;97363.28;;;10.45;86.62
35908;BME280;22003;50.320;8.054;2023-03-14T07:31:17;97355.31;;;10.68;86.03
35908;BME280;22003;50.320;8.054;2023-03-14T07:33:43;97337.72;;;10.52;86.39
35908;BME280;22003;50.320;8.054;2023-03-14T07:36:10;97352.38;;;10.63;86.47
35908;BME280;22003;50.320;8.054;2023-03-14T07:38:35;97245.63;;;10.01;85.92
35908;BME280;22003;50.320;8.054;2023-03-14T07:41:02;97364.75;;;10.85;85.70
35908;BME280;22003;50.320;8.054;2023-03-14T07:43:28;97360.19;;;10.94;84.63
35908;BME280;22003;50.320;8.054;2023-03-14T07:45:53;97364.38;;;10.88;84.45
35908;BME280;22003;50.320;8.054;2023-03-14T07:48:18;97368.97;;;10.94;84.85
35908;BME280;22003;50.320;8.054;2023-03-14T07:50:48;97360.97;;;11.32;82.98
35908;BME280;22003;50.320;8.054;2023-03-14T07:53:13;97374.94;;;11.11;83.41
35908;BME280;22003;50.320;8.054;2023-03-14T07:55:39;97318.66;;;10.94;83.39
35908;BME280;22003;50.320;8.054;2023-03-14T07:58:05;97368.56;;;11.50;83.28
35908;BME280;22003;50.320;8.054;2023-03-14T08:00:30;97363.34;;;11.56;82.11
35908;BME280;22003;50.320;8.054;2023-03-14T08:02:55;97374.13;;;11.70;82.27
35908;BME280;22003;50.320;8.054;2023-03-14T08:05:21;97366.28;;;11.61;81.92
35908;BME280;22003;50.320;8.054;2023-03-14T08:07:47;97364.09;;;11.50;81.91
35908;BME280;22003;50.320;8.054;2023-03-14T08:10:12;97367.28;;;11.60;82.98
35908;BME280;22003;50.320;8.054;2023-03-14T08:12:40;97368.06;;;12.05;82.45
35908;BME280;22003;50.320;8.054;2023-03-14T08:15:06;97341.53;;;11.76;80.84
35908;BME280;22003;50.320;8.054;2023-03-14T08:17:32;97364.50;;;11.98;80.44
35908;BME280;22003;50.320;8.054;2023-03-14T08:19:57;97360.50;;;12.24;80.27
35908;BME280;22003;50.320;8.054;2023-03-14T08:22:22;97282.75;;;12.08;78.92
35908;BME280;22003;50.320;8.054;2023-03-14T08:24:47;97366.94;;;12.14;78.93
35908;BME280;22003;50.320;8.054;2023-03-14T08:27:12;97324.31;;;11.50;80.18
35908;BME280;22003;50.320;8.054;2023-03-14T08:29:39;97366.41;;;12.04;80.43
35908;BME280;22003;50.320;8.054;2023-03-14T08:32:06;97315.63;;;11.56;80.85
35908;BME280;22003;50.320;8.054;2023-03-14T08:34:33;97372.44;;;11.98;80.16
35908;BME280;22003;50.320;8.054;2023-03-14T08:36:58;97334.06;;;11.94;79.92
35908;BME280;22003;50.320;8.054;2023-03-14T08:39:24;97364.41;;;12.06;80.62
35908;BME280;22003;50.320;8.054;2023-03-14T08:41:49;97378.50;;;12.07;80.48
35908;BME280;22003;50.320;8.054;2023-03-14T08:44:15;97386.44;;;12.07;81.31
35908;BME280;22003;50.320;8.054;2023-03-14T08:46:40;97393.19;;;12.24;81.27
35908;BME280;22003;50.320;8.054;2023-03-14T08:49:05;97390.22;;;12.34;81.28
35908;BME280;22003;50.320;8.054;2023-03-14T08:51:30;97389.47;;;12.40;80.24
35908;BME280;22003;50.320;8.054;2023-03-14T08:53:55;97379.91;;;12.46;79.17
35908;BME280;22003;50.320;8.054;2023-03-14T08:56:21;97390.38;;;12.32;79.48
35908;BME280;22003;50.320;8.054;2023-03-14T08:58:46;97398.69;;;12.23;81.76
35908;BME280;22003;50.320;8.054;2023-03-14T09:01:11;97389.66;;;12.60;79.38
35908;BME280;22003;50.320;8.054;2023-03-14T09:03:37;97391.25;;;12.33;80.33
35908;BME280;22003;50.320;8.054;2023-03-14T09:06:03;97391.47;;;12.38;80.81
35908;BME280;22003;50.320;8.054;2023-03-14T09:08:29;97388.97;;;12.51;80.10
35908;BME280;22003;50.320;8.054;2023-03-14T09:10:54;97391.72;;;12.43;79.80
35908;BME280;22003;50.320;8.054;2023-03-14T09:13:20;97347.25;;;12.09;79.79
35908;BME280;22003;50.320;8.054;2023-03-14T09:15:50;97353.63;;;12.51;79.98
35908;BME280;22003;50.320;8.054;2023-03-14T09:18:15;97396.53;;;12.54;79.86
35908;BME280;22003;50.320;8.054;2023-03-14T09:20:40;97385.03;;;12.47;80.40
35908;BME280;22003;50.320;8.054;2023-03-14T09:23:06;97265.28;;;11.78;81.17
35908;BME280;22003;50.320;8.054;2023-03-14T09:25:32;97394.13;;;12.38;81.17
35908;BME280;22003;50.320;8.054;2023-03-14T09:27:57;97390.72;;;12.23;80.74
35908;BME280;22003;50.320;8.054;2023-03-14T09:30:22;97376.72;;;12.14;80.25
35908;BME280;22003;50.320;8.054;2023-03-14T09:32:47;97396.03;;;12.23;80.52
35908;BME280;22003;50.320;8.054;2023-03-14T09:35:13;97365.78;;;12.02;81.68
35908;BME280;22003;50.320;8.054;2023-03-14T09:37:38;97399.69;;;12.43;80.68
35908;BME280;22003;50.320;8.054;2023-03-14T09:40:04;97404.06;;;12.29;81.23
35908;BME280;22003;50.320;8.054;2023-03-14T09:42:36;97400.19;;;12.32;81.04
35908;BME280;22003;50.320;8.054;2023-03-14T09:45:05;97402.84;;;12.10;80.96
35908;BME280;22003;50.320;8.054;2023-03-14T09:47:33;97420.00;;;12.14;80.72
35908;BME280;22003;50.320;8.054;2023-03-14T09:50:00;97408.97;;;12.11;81.00
35908;BME280;22003;50.320;8.054;2023-03-14T09:52:36;97415.25;;;12.10;81.00
35908;BME280;22003;50.320;8.054;2023-03-14T09:55:06;97401.38;;;11.78;81.14
35908;BME280;22003;50.320;8.054;2023-03-14T09:57:36;97421.03;;;11.99;81.02
35908;BME280;22003;50.320;8.054;2023-03-14T10:00:05;97424.75;;;11.83;83.48
35908;BME280;22003;50.320;8.054;2023-03-14T10:02:38;97394.34;;;11.56;83.51
35908;BME280;22003;50.320;8.054;2023-03-14T10:05:13;97394.59;;;11.76;83.61
35908;BME280;22003;50.320;8.054;2023-03-14T10:07:40;97414.28;;;11.96;84.25
35908;BME280;22003;50.320;8.054;2023-03-14T10:10:11;97378.25;;;11.72;84.21
35908;BME280;22003;50.320;8.054;2023-03-14T10:12:38;97414.00;;;11.91;83.54
35908;BME280;22003;50.320;8.054;2023-03-14T10:15:09;97418.09;;;12.08;83.11
35908;BME280;22003;50.320;8.054;2023-03-14T10:17:51;97404.63;;;12.25;82.24
35908;BME280;22003;50.320;8.054;2023-03-14T10:20:35;97410.16;;;11.94;82.69
35908;BME280;22003;50.320;8.054;2023-03-14T10:23:24;97410.06;;;11.87;83.66
35908;BME280;22003;50.320;8.054;2023-03-14T10:28:29;97404.59;;;11.88;81.88
35908;BME280;22003;50.320;8.054;2023-03-14T10:30:57;97409.91;;;11.88;82.82
35908;BME280;22003;50.320;8.054;2023-03-14T10:33:28;97409.06;;;11.88;82.08
35908;BME280;22003;50.320;8.054;2023-03-14T10:35:56;97360.78;;;11.48;83.13
35908;BME280;22003;50.320;8.054;2023-03-14T10:38:24;97419.66;;;12.03;82.72
35908;BME280;22003;50.320;8.054;2023-03-14T10:40:52;97407.34;;;11.95;83.47
35908;BME280;22003;50.320;8.054;2023-03-14T10:43:21;97380.53;;;11.60;82.73
35908;BME280;22003;50.320;8.054;2023-03-14T10:45:57;97419.66;;;12.03;82.68
35908;BME280;22003;50.320;8.054;2023-03-14T10:51:01;97417.41;;;12.00;83.59
35908;BME280;22003;50.320;8.054;2023-03-14T10:53:33;97416.81;;;11.60;85.24
35908;BME280;22003;50.320;8.054;2023-03-14T10:56:02;97430.47;;;11.57;85.89
35908;BME280;22003;50.320;8.054;2023-03-14T10:58:30;97429.81;;;11.70;86.73
35908;BME280;22003;50.320;8.054;2023-03-14T11:01:07;97415.34;;;11.43;87.25
35908;BME280;22003;50.320;8.054;2023-03-14T11:03:37;97434.41;;;11.61;88.97
35908;BME280;22003;50.320;8.054;2023-03-14T11:06:12;97422.50;;;11.57;88.60
35908;BME280;22003;50.320;8.054;2023-03-14T11:09:00;97432.19;;;11.64;88.89
35908;BME280;22003;50.320;8.054;2023-03-14T11:11:30;97445.66;;;11.78;88.51
35908;BME280;22003;50.320;8.054;2023-03-14T11:17:02;97453.69;;;11.70;89.74
35908;BME280;22003;50.320;8.054;2023-03-14T11:19:40;97436.47;;;10.29;95.58
35908;BME280;22003;50.320;8.054;2023-03-14T11:25:06;97594.81;;;9.04;99.24
35908;BME280;22003;50.320;8.054;2023-03-14T11:27:45;97608.97;;;8.86;100.00
35908;BME280;22003;50.320;8.054;2023-03-14T11:30:25;97638.06;;;8.52;100.00
35908;BME280;22003;50.320;8.054;2023-03-14T11:33:28;97630.63;;;7.96;100.00
35908;BME280;22003;50.320;8.054;2023-03-14T11:36:03;97657.63;;;7.54;100.00
35908;BME280;22003;50.320;8.054;2023-03-14T11:38:43;97675.63;;;7.23;100.00
35908;BME280;22003;50.320;8.054;2023-03-14T11:41:15;97708.34;;;7.20;100.00
35908;BME280;22003;50.320;8.054;2023-03-14T11:43:47;97680.13;;;7.12;100.00
35908;BME280;22003;50.320;8.054;2023-03-14T11:46:17;97691.19;;;7.16;100.00
35908;BME280;22003;50.320;8.054;2023-03-14T11:49:11;97710.09;;;7.29;100.00
35908;BME280;22003;50.320;8.054;2023-03-14T11:51:43;97705.72;;;7.38;100.00
35908;BME280;22003;50.320;8.054;2023-03-14T11:57:03;97738.50;;;7.71;100.00
35908;BME280;22003;50.320;8.054;2023-03-14T11:59:38;97760.94;;;7.75;100.00
35908;BME280;22003;50.320;8.054;2023-03-14T12:02:22;97717.25;;;7.55;100.00
35908;BME280;22003;50.320;8.054;2023-03-14T12:07:42;97781.69;;;8.06;100.00
35908;BME280;22003;50.320;8.054;2023-03-14T12:10:15;97773.03;;;8.21;100.00
35908;BME280;22003;50.320;8.054;2023-03-14T12:12:41;97788.13;;;8.47;99.36
35908;BME280;22003;50.320;8.054;2023-03-14T12:15:18;97786.94;;;8.24;99.93
35908;BME280;22003;50.320;8.054;2023-03-14T12:17:44;97802.38;;;8.36;99.09
35908;BME280;22003;50.320;8.054;2023-03-14T12:25:16;97816.59;;;8.61;95.90
35908;BME280;22003;50.320;8.054;2023-03-14T12:27:48;97783.00;;;8.45;95.99
35908;BME280;22003;50.320;8.054;2023-03-14T12:30:32;97823.00;;;8.59;93.44
35908;BME280;22003;50.320;8.054;2023-03-14T12:38:24;97820.06;;;8.62;92.39
35908;BME280;22003;50.320;8.054;2023-03-14T12:41:13;97840.00;;;8.82;91.00
35908;BME280;22003;50.320;8.054;2023-03-14T12:43:39;97835.16;;;9.04;88.17
35908;BME280;22003;50.320;8.054;2023-03-14T12:46:20;97828.00;;;9.64;88.77
35908;BME280;22003;50.320;8.054;2023-03-14T12:49:10;97849.06;;;9.40;85.65
35908;BME280;22003;50.320;8.054;2023-03-14T12:51:39;97858.66;;;9.07;85.16
35908;BME280;22003;50.320;8.054;2023-03-14T12:56:58;97869.00;;;8.74;87.23
35908;BME280;22003;50.320;8.054;2023-03-14T12:59:30;97868.75;;;8.85;87.79
35908;BME280;22003;50.320;8.054;2023-03-14T13:02:01;97862.47;;;8.86;87.45
35908;BME280;22003;50.320;8.054;2023-03-14T13:04:32;97858.88;;;8.69;87.80
35908;BME280;22003;50.320;8.054;2023-03-14T13:07:00;97912.50;;;8.70;87.64
35908;BME280;22003;50.320;8.054;2023-03-14T13:11:52;97938.91;;;7.52;98.27
35908;BME280;22003;50.320;8.054;2023-03-14T13:14:18;97946.50;;;7.18;100.00
35908;BME280;22003;50.320;8.054;2023-03-14T13:16:44;97952.31;;;7.68;100.00
35908;BME280;22003;50.320;8.054;2023-03-14T13:19:20;97929.50;;;8.50;100.00
35908;BME280;22003;50.320;8.054;2023-03-14T13:21:46;97931.19;;;8.23;98.96
35908;BME280;22003;50.320;8.054;2023-03-14T13:24:33;97937.22;;;8.33;96.44
35908;BME280;22003;50.320;8.054;2023-03-14T13:26:58;97904.22;;;8.47;94.67
35908;BME280;22003;50.320;8.054;2023-03-14T13:29:26;97975.19;;;8.68;92.03
35908;BME280;22003;50.320;8.054;2023-03-14T13:31:57;97956.47;;;8.43;89.28
35908;BME280;22003;50.320;8.054;2023-03-14T13:34:29;97982.19;;;8.59;88.29
35908;BME280;22003;50.320;8.054;2023-03-14T13:36:55;98011.56;;;8.74;88.58
35908;BME280;22003;50.320;8.054;2023-03-14T13:39:23;98006.63;;;8.43;87.10
35908;BME280;22003;50.320;8.054;2023-03-14T13:41:54;98026.44;;;8.20;87.54
35908;BME280;22003;50.320;8.054;2023-03-14T13:46:50;98096.31;;;6.72;93.86
35908;BME280;22003;50.320;8.054;2023-03-14T13:49:23;98117.72;;;6.18;100.00
35908;BME280;22003;50.320;8.054;2023-03-14T13:51:49;98088.81;;;6.18;100.00
35908;BME280;22003;50.320;8.054;2023-03-14T13:54:16;98101.13;;;6.17;100.00
35908;BME280;22003;50.320;8.054;2023-03-14T13:56:42;98107.84;;;6.10;100.00
35908;BME280;22003;50.320;8.054;2023-03-14T13:59:25;98114.50;;;6.14;100.00
35908;BME280;22003;50.320;8.054;2023-03-14T14:01:52;98115.66;;;6.21;100.00
35908;BME280;22003;50.320;8.054;2023-03-14T14:04:20;98121.44;;;6.15;100.00
35908;BME280;22003;50.320;8.054;2023-03-14T14:06:52;98140.47;;;6.28;100.00
35908;BME280;22003;50.320;8.054;2023-03-14T14:09:27;98146.28;;;6.32;100.00
35908;BME280;22003;50.320;8.054;2023-03-14T14:12:03;98143.78;;;6.30;100.00
35908;BME280;22003;50.320;8.054;2023-03-14T14:14:34;98072.81;;;5.79;100.00
35908;BME280;22003;50.320;8.054;2023-03-14T14:17:05;98143.38;;;6.04;100.00
35908;BME280;22003;50.320;8.054;2023-03-14T14:19:34;98189.09;;;6.13;100.00
35908;BME280;22003;50.320;8.054;2023-03-14T14:22:00;98125.50;;;5.77;100.00
35908;BME280;22003;50.320;8.054;2023-03-14T14:24:29;98182.53;;;5.87;100.00
35908;BME280;22003;50.320;8.054;2023-03-14T14:27:00;98215.91;;;6.28;100.00
35908;BME280;22003;50.320;8.054;2023-03-14T14:29:30;98213.88;;;6.41;100.00
35908;BME280;22003;50.320;8.054;2023-03-14T14:34:39;98192.19;;;6.18;100.00
35908;BME280;22003;50.320;8.054;2023-03-14T14:37:05;98242.53;;;6.65;100.00
35908;BME280;22003;50.320;8.054;2023-03-14T14:39:39;98274.63;;;6.59;99.45
35908;BME280;22003;50.320;8.054;2023-03-14T14:42:04;98259.31;;;6.43;99.79
35908;BME280;22003;50.320;8.054;2023-03-14T14:44:32;98159.69;;;5.77;99.27
35908;BME280;22003;50.320;8.054;2023-03-14T14:46:59;98271.19;;;6.38;99.27
35908;BME280;22003;50.320;8.054;2023-03-14T14:49:31;98252.53;;;6.20;99.81
35908;BME280;22003;50.320;8.054;2023-03-14T14:52:04;98287.75;;;6.28;100.00
35908;BME280;22003;50.320;8.054;2023-03-14T14:57:25;98305.25;;;6.18;99.65
35908;BME280;22003;50.320;8.054;2023-03-14T14:59:55;98294.97;;;6.15;99.24
35908;BME280;22003;50.320;8.054;2023-03-14T15:02:41;98307.16;;;6.16;98.91
35908;BME280;22003;50.320;8.054;2023-03-14T15:05:15;98325.13;;;6.11;99.07
35908;BME280;22003;50.320;8.054;2023-03-14T15:07:41;98322.03;;;6.06;98.62
35908;BME280;22003;50.320;8.054;2023-03-14T15:10:10;98331.84;;;6.04;98.27
35908;BME280;22003;50.320;8.054;2023-03-14T15:12:36;98339.06;;;6.23;98.34
35908;BME280;22003;50.320;8.054;2023-03-14T15:15:01;98337.19;;;6.14;97.79
35908;BME280;22003;50.320;8.054;2023-03-14T15:17:26;98294.00;;;5.52;98.50
35908;BME280;22003;50.320;8.054;2023-03-14T15:19:52;98348.66;;;5.69;99.65
35908;BME280;22003;50.320;8.054;2023-03-14T15:22:17;98364.66;;;5.77;100.00
35908;BME280;22003;50.320;8.054;2023-03-14T15:24:42;98364.19;;;5.72;100.00
35908;BME280;22003;50.320;8.054;2023-03-14T15:27:13;98363.59;;;5.57;100.00
35908;BME280;22003;50.320;8.054;2023-03-14T15:29:40;98374.72;;;5.50;100.00
35908;BME280;22003;50.320;8.054;2023-03-14T15:32:05;98333.66;;;5.26;100.00
35908;BME280;22003;50.320;8.054;2023-03-14T15:34:31;98377.59;;;5.47;100.00
35908;BME280;22003;50.320;8.054;2023-03-14T15:36:56;98378.91;;;5.41;99.84
35908;BME280;22003;50.320;8.054;2023-03-14T15:39:21;98388.81;;;5.38;100.00
35908;BME280;22003;50.320;8.054;2023-03-14T15:41:47;98311.84;;;4.81;100.00
35908;BME280;22003;50.320;8.054;2023-03-14T15:44:12;98372.22;;;5.15;100.00
35908;BME280;22003;50.320;8.054;2023-03-14T15:46:38;98401.84;;;5.28;100.00
35908;BME280;22003;50.320;8.054;2023-03-14T15:49:03;98388.56;;;5.07;100.00
35908;BME280;22003;50.320;8.054;2023-03-14T15:51:28;98399.41;;;5.02;100.00
35908;BME280;22003;50.320;8.054;2023-03-14T15:53:54;98420.91;;;5.19;100.00
35908;BME280;22003;50.320;8.054;2023-03-14T15:56:19;98422.56;;;4.97;100.00
35908;BME280;22003;50.320;8.054;2023-03-14T15:58:45;98452.22;;;4.87;100.00
35908;BME280;22003;50.320;8.054;2023-03-14T16:01:12;98443.78;;;4.59;100.00
35908;BME280;22003;50.320;8.054;2023-03-14T16:03:37;98465.75;;;4.58;100.00
35908;BME280;22003;50.320;8.054;2023-03-14T16:06:03;98469.38;;;4.44;100.00
35908;BME280;22003;50.320;8.054;2023-03-14T16:08:28;98484.06;;;4.47;100.00
35908;BME280;22003;50.320;8.054;2023-03-14T16:10:55;98494.69;;;4.33;100.00
35908;BME280;22003;50.320;8.054;2023-03-14T16:13:21;98488.81;;;4.05;100.00
35908;BME280;22003;50.320;8.054;2023-03-14T16:15:58;98492.94;;;3.96;100.00
35908;BME280;22003;50.320;8.054;2023-03-14T16:18:24;98478.94;;;3.85;100.00
35908;BME280;22003;50.320;8.054;2023-03-14T16:20:57;98504.13;;;4.11;100.00
35908;BME280;22003;50.320;8.054;2023-03-14T16:23:24;98499.28;;;4.05;100.00
35908;BME280;22003;50.320;8.054;2023-03-14T16:25:50;98502.53;;;4.09;100.00
35908;BME280;22003;50.320;8.054;2023-03-14T16:28:16;98508.09;;;4.17;100.00
35908;BME280;22003;50.320;8.054;2023-03-14T16:30:41;98527.38;;;4.16;100.00
35908;BME280;22003;50.320;8.054;2023-03-14T16:33:07;98526.09;;;4.21;100.00
35908;BME280;22003;50.320;8.054;2023-03-14T16:35:35;98519.63;;;4.14;100.00
35908;BME280;22003;50.320;8.054;2023-03-14T16:38:01;98532.06;;;4.23;100.00
35908;BME280;22003;50.320;8.054;2023-03-14T16:40:26;98518.78;;;4.14;100.00
35908;BME280;22003;50.320;8.054;2023-03-14T16:42:51;98525.81;;;4.13;100.00
35908;BME280;22003;50.320;8.054;2023-03-14T16:45:17;98540.97;;;4.21;100.00
35908;BME280;22003;50.320;8.054;2023-03-14T16:47:43;98553.16;;;4.22;100.00
35908;BME280;22003;50.320;8.054;2023-03-14T16:50:08;98556.28;;;4.27;100.00
35908;BME280;22003;50.320;8.054;2023-03-14T16:52:34;98550.13;;;4.15;100.00
35908;BME280;22003;50.320;8.054;2023-03-14T16:54:59;98560.59;;;4.15;100.00
35908;BME280;22003;50.320;8.054;2023-03-14T16:57:24;98580.13;;;4.11;100.00
35908;BME280;22003;50.320;8.054;2023-03-14T16:59:49;98621.13;;;4.12;100.00
35908;BME280;22003;50.320;8.054;2023-03-14T17:02:15;98669.81;;;3.51;100.00
35908;BME280;22003;50.320;8.054;2023-03-14T17:04:40;98655.91;;;2.84;100.00
35908;BME280;22003;50.320;8.054;2023-03-14T17:07:06;98662.78;;;2.29;100.00
35908;BME280;22003;50.320;8.054;2023-03-14T17:09:31;98675.38;;;2.08;100.00
35908;BME280;22003;50.320;8.054;2023-03-14T17:11:57;98679.84;;;1.92;100.00
35908;BME280;22003;50.320;8.054;2023-03-14T17:14:22;98660.72;;;1.92;100.00
35908;BME280;22003;50.320;8.054;2023-03-14T17:16:50;98642.38;;;2.07;100.00
35908;BME280;22003;50.320;8.054;2023-03-14T17:19:16;98639.09;;;1.90;100.00
35908;BME280;22003;50.320;8.054;2023-03-14T17:21:41;98653.56;;;2.09;100.00
35908;BME280;22003;50.320;8.054;2023-03-14T17:24:06;98655.22;;;2.10;100.00
35908;BME280;22003;50.320;8.054;2023-03-14T17:26:31;98668.13;;;2.14;100.00
35908;BME280;22003;50.320;8.054;2023-03-14T17:28:57;98648.78;;;2.16;100.00
35908;BME280;22003;50.320;8.054;2023-03-14T17:31:22;98671.28;;;2.33;100.00
35908;BME280;22003;50.320;8.054;2023-03-14T17:33:48;98669.88;;;2.42;100.00
35908;BME280;22003;50.320;8.054;2023-03-14T17:36:16;98681.38;;;2.39;100.00
35908;BME280;22003;50.320;8.054;2023-03-14T17:38:42;98669.03;;;2.27;100.00
35908;BME280;22003;50.320;8.054;2023-03-14T17:41:10;98675.78;;;2.17;100.00
35908;BME280;22003;50.320;8.054;2023-03-14T17:43:36;98647.56;;;2.22;100.00
35908;BME280;22003;50.320;8.054;2023-03-14T17:46:05;98694.31;;;2.26;100.00
35908;BME280;22003;50.320;8.054;2023-03-14T17:48:33;98710.97;;;2.40;100.00
35908;BME280;22003;50.320;8.054;2023-03-14T17:50:58;98704.97;;;2.37;100.00
35908;BME280;22003;50.320;8.054;2023-03-14T17:53:23;98710.84;;;2.55;100.00
35908;BME280;22003;50.320;8.054;2023-03-14T17:55:49;98733.25;;;2.59;100.00
35908;BME280;22003;50.320;8.054;2023-03-14T17:58:14;98747.28;;;2.73;100.00
35908;BME280;22003;50.320;8.054;2023-03-14T18:00:40;98752.88;;;2.67;100.00
35908;BME280;22003;50.320;8.054;2023-03-14T18:03:05;98760.63;;;2.54;100.00
35908;BME280;22003;50.320;8.054;2023-03-14T18:05:31;98763.91;;;2.57;100.00
35908;BME280;22003;50.320;8.054;2023-03-14T18:07:56;98763.03;;;2.71;100.00
35908;BME280;22003;50.320;8.054;2023-03-14T18:10:22;98760.72;;;2.67;100.00
35908;BME280;22003;50.320;8.054;2023-03-14T18:12:47;98763.13;;;2.84;100.00
35908;BME280;22003;50.320;8.054;2023-03-14T18:15:12;98792.09;;;2.95;100.00
35908;BME280;22003;50.320;8.054;2023-03-14T18:17:41;98798.22;;;2.94;100.00
35908;BME280;22003;50.320;8.054;2023-03-14T18:20:07;98783.03;;;2.86;100.00
35908;BME280;22003;50.320;8.054;2023-03-14T18:22:36;98794.59;;;2.82;100.00
35908;BME280;22003;50.320;8.054;2023-03-14T18:25:02;98799.09;;;2.80;100.00
35908;BME280;22003;50.320;8.054;2023-03-14T18:27:27;98815.53;;;2.82;100.00
35908;BME280;22003;50.320;8.054;2023-03-14T18:29:53;98805.16;;;2.81;100.00
35908;BME280;22003;50.320;8.054;2023-03-14T18:32:18;98804.88;;;2.71;100.00
35908;BME280;22003;50.320;8.054;2023-03-14T18:34:43;98808.00;;;2.78;100.00
35908;BME280;22003;50.320;8.054;2023-03-14T18:37:08;98799.28;;;2.63;100.00
35908;BME280;22003;50.320;8.054;2023-03-14T18:39:34;98822.16;;;2.88;100.00
35908;BME280;22003;50.320;8.054;2023-03-14T18:41:59;98806.09;;;3.08;90.99
35908;BME280;22003;50.320;8.054;2023-03-14T18:44:25;98829.25;;;3.14;90.28
35908;BME280;22003;50.320;8.054;2023-03-14T18:46:50;98844.38;;;3.24;91.87